sensor_id;sensor_type;location;lat;lon;timestamp;P1;durP1;ratioP1;P2;durP2;ratioP2
28844;SDS011;15976;47.938;7.758;2022-07-23T00:00:20;8.35;;;7.05;;
28844;SDS011;15976;47.938;7.758;2022-07-23T00:02:47;8.55;;;7.18;;
28844;SDS011;15976;47.938;7.758;2022-07-23T00:05:14;9.02;;;7.40;;
28844;SDS011;15976;47.938;7.758;2022-07-23T00:07:41;8.90;;;6.93;;
28844;SDS011;15976;47.938;7.758;2022-07-23T00:10:08;7.85;;;7.05;;
28844;SDS011;15976;47.938;7.758;2022-07-23T00:12:36;7.45;;;6.75;;
28844;SDS011;15976;47.938;7.758;2022-07-23T00:15:17;10.05;;;7.13;;
28844;SDS011;15976;47.938;7.758;2022-07-23T00:17:45;8.73;;;6.82;;
28844;SDS011;15976;47.938;7.758;2022-07-23T00:20:12;8.52;;;7.05;;
28844;SDS011;15976;47.938;7.758;2022-07-23T00:22:49;9.13;;;7.20;;
28844;SDS011;15976;47.938;7.758;2022-07-23T00:25:18;8.25;;;6.45;;
28844;SDS011;15976;47.938;7.758;2022-07-23T00:27:56;8.90;;;7.05;;
28844;SDS011;15976;47.938;7.758;2022-07-23T00:30:24;9.00;;;6.97;;
28844;SDS011;15976;47.938;7.758;2022-07-23T00:32:55;12.70;;;6.70;;
28844;SDS011;15976;47.938;7.758;2022-07-23T00:35:24;8.68;;;7.00;;
28844;SDS011;15976;47.938;7.758;2022-07-23T00:37:53;8.20;;;5.93;;
28844;SDS011;15976;47.938;7.758;2022-07-23T00:40:21;7.90;;;6.60;;
28844;SDS011;15976;47.938;7.758;2022-07-23T00:42:49;8.05;;;5.93;;
28844;SDS011;15976;47.938;7.758;2022-07-23T00:45:16;6.60;;;5.90;;
28844;SDS011;15976;47.938;7.758;2022-07-23T00:47:43;6.28;;;5.57;;
28844;SDS011;15976;47.938;7.758;2022-07-23T00:50:11;6.80;;;5.80;;
28844;SDS011;15976;47.938;7.758;2022-07-23T00:52:39;6.65;;;5.30;;
28844;SDS011;15976;47.938;7.758;2022-07-23T00:55:08;6.85;;;6.00;;
28844;SDS011;15976;47.938;7.758;2022-07-23T00:57:37;6.35;;;5.22;;
28844;SDS011;15976;47.938;7.758;2022-07-23T01:00:06;7.25;;;5.90;;
28844;SDS011;15976;47.938;7.758;2022-07-23T01:02:37;7.70;;;5.97;;
28844;SDS011;15976;47.938;7.758;2022-07-23T01:05:04;9.45;;;6.68;;
28844;SDS011;15976;47.938;7.758;2022-07-23T01:07:32;7.00;;;6.30;;
28844;SDS011;15976;47.938;7.758;2022-07-23T01:10:00;6.55;;;5.68;;
28844;SDS011;15976;47.938;7.758;2022-07-23T01:12:29;6.50;;;5.75;;
28844;SDS011;15976;47.938;7.758;2022-07-23T01:14:57;7.20;;;6.05;;
28844;SDS011;15976;47.938;7.758;2022-07-23T01:17:27;8.75;;;5.85;;
28844;SDS011;15976;47.938;7.758;2022-07-23T01:19:54;8.52;;;6.10;;
28844;SDS011;15976;47.938;7.758;2022-07-23T01:22:21;7.50;;;6.30;;
28844;SDS011;15976;47.938;7.758;2022-07-23T01:24:49;7.60;;;6.45;;
28844;SDS011;15976;47.938;7.758;2022-07-23T01:27:21;8.68;;;7.07;;
28844;SDS011;15976;47.938;7.758;2022-07-23T01:29:52;11.20;;;6.80;;
28844;SDS011;15976;47.938;7.758;2022-07-23T01:32:22;7.22;;;6.20;;
28844;SDS011;15976;47.938;7.758;2022-07-23T01:34:49;15.07;;;8.40;;
28844;SDS011;15976;47.938;7.758;2022-07-23T01:37:16;11.45;;;7.97;;
28844;SDS011;15976;47.938;7.758;2022-07-23T01:39:44;10.93;;;7.72;;
28844;SDS011;15976;47.938;7.758;2022-07-23T01:42:11;11.40;;;7.38;;
28844;SDS011;15976;47.938;7.758;2022-07-23T01:44:39;9.52;;;7.43;;
28844;SDS011;15976;47.938;7.758;2022-07-23T01:47:11;12.45;;;7.22;;
28844;SDS011;15976;47.938;7.758;2022-07-23T01:49:38;10.55;;;7.18;;
28844;SDS011;15976;47.938;7.758;2022-07-23T01:52:32;7.78;;;6.88;;
28844;SDS011;15976;47.938;7.758;2022-07-23T01:54:59;12.88;;;8.00;;
28844;SDS011;15976;47.938;7.758;2022-07-23T01:57:26;8.00;;;7.05;;
28844;SDS011;15976;47.938;7.758;2022-07-23T01:59:53;9.18;;;7.30;;
28844;SDS011;15976;47.938;7.758;2022-07-23T02:02:21;9.85;;;7.60;;
28844;SDS011;15976;47.938;7.758;2022-07-23T02:04:48;11.10;;;7.20;;
28844;SDS011;15976;47.938;7.758;2022-07-23T02:07:17;7.63;;;6.90;;
28844;SDS011;15976;47.938;7.758;2022-07-23T02:09:44;10.23;;;7.20;;
28844;SDS011;15976;47.938;7.758;2022-07-23T02:12:11;8.95;;;6.90;;
28844;SDS011;15976;47.938;7.758;2022-07-23T02:14:38;11.30;;;7.55;;
28844;SDS011;15976;47.938;7.758;2022-07-23T02:17:05;9.77;;;7.60;;
28844;SDS011;15976;47.938;7.758;2022-07-23T02:19:34;9.52;;;7.68;;
28844;SDS011;15976;47.938;7.758;2022-07-23T02:22:01;8.63;;;7.35;;
28844;SDS011;15976;47.938;7.758;2022-07-23T02:24:28;8.95;;;8.05;;
28844;SDS011;15976;47.938;7.758;2022-07-23T02:26:55;9.52;;;7.70;;
28844;SDS011;15976;47.938;7.758;2022-07-23T02:29:22;11.80;;;7.60;;
28844;SDS011;15976;47.938;7.758;2022-07-23T02:31:49;9.38;;;7.80;;
28844;SDS011;15976;47.938;7.758;2022-07-23T02:34:16;8.10;;;7.35;;
28844;SDS011;15976;47.938;7.758;2022-07-23T02:36:43;13.50;;;7.43;;
28844;SDS011;15976;47.938;7.758;2022-07-23T02:39:11;9.65;;;7.53;;
28844;SDS011;15976;47.938;7.758;2022-07-23T02:41:38;12.00;;;8.13;;
28844;SDS011;15976;47.938;7.758;2022-07-23T02:44:05;12.98;;;7.30;;
28844;SDS011;15976;47.938;7.758;2022-07-23T02:46:32;9.45;;;7.10;;
28844;SDS011;15976;47.938;7.758;2022-07-23T02:49:00;9.35;;;7.03;;
28844;SDS011;15976;47.938;7.758;2022-07-23T02:51:29;8.05;;;7.00;;
28844;SDS011;15976;47.938;7.758;2022-07-23T02:54:01;9.18;;;6.53;;
28844;SDS011;15976;47.938;7.758;2022-07-23T02:56:28;8.27;;;6.35;;
28844;SDS011;15976;47.938;7.758;2022-07-23T02:58:57;7.35;;;6.55;;
28844;SDS011;15976;47.938;7.758;2022-07-23T03:01:24;7.93;;;6.80;;
28844;SDS011;15976;47.938;7.758;2022-07-23T03:03:52;9.25;;;7.03;;
28844;SDS011;15976;47.938;7.758;2022-07-23T03:06:21;8.80;;;6.57;;
28844;SDS011;15976;47.938;7.758;2022-07-23T03:08:49;9.20;;;6.72;;
28844;SDS011;15976;47.938;7.758;2022-07-23T03:11:16;8.18;;;6.97;;
28844;SDS011;15976;47.938;7.758;2022-07-23T03:13:43;8.60;;;7.10;;
28844;SDS011;15976;47.938;7.758;2022-07-23T03:16:11;9.82;;;7.53;;
28844;SDS011;15976;47.938;7.758;2022-07-23T03:18:38;9.18;;;7.35;;
28844;SDS011;15976;47.938;7.758;2022-07-23T03:21:06;11.68;;;8.02;;
28844;SDS011;15976;47.938;7.758;2022-07-23T03:23:34;9.95;;;8.95;;
28844;SDS011;15976;47.938;7.758;2022-07-23T03:26:01;10.35;;;8.48;;
28844;SDS011;15976;47.938;7.758;2022-07-23T03:28:28;11.63;;;7.57;;
28844;SDS011;15976;47.938;7.758;2022-07-23T03:30:55;8.68;;;7.10;;
28844;SDS011;15976;47.938;7.758;2022-07-23T03:33:23;7.88;;;7.07;;
28844;SDS011;15976;47.938;7.758;2022-07-23T03:35:52;9.82;;;7.28;;
28844;SDS011;15976;47.938;7.758;2022-07-23T03:38:23;8.07;;;7.28;;
28844;SDS011;15976;47.938;7.758;2022-07-23T03:40:50;8.45;;;7.53;;
28844;SDS011;15976;47.938;7.758;2022-07-23T03:43:17;8.73;;;6.97;;
28844;SDS011;15976;47.938;7.758;2022-07-23T03:45:45;8.13;;;7.22;;
28844;SDS011;15976;47.938;7.758;2022-07-23T03:48:13;8.25;;;7.18;;
28844;SDS011;15976;47.938;7.758;2022-07-23T03:50:40;9.65;;;6.80;;
28844;SDS011;15976;47.938;7.758;2022-07-23T03:53:07;8.57;;;7.68;;
28844;SDS011;15976;47.938;7.758;2022-07-23T03:55:34;8.02;;;7.22;;
28844;SDS011;15976;47.938;7.758;2022-07-23T03:58:02;8.20;;;7.00;;
28844;SDS011;15976;47.938;7.758;2022-07-23T04:00:29;8.13;;;7.30;;
28844;SDS011;15976;47.938;7.758;2022-07-23T04:02:57;10.07;;;7.97;;
28844;SDS011;15976;47.938;7.758;2022-07-23T04:05:24;8.43;;;6.90;;
28844;SDS011;15976;47.938;7.758;2022-07-23T04:08:03;9.98;;;7.78;;
28844;SDS011;15976;47.938;7.758;2022-07-23T04:10:31;8.55;;;7.55;;
28844;SDS011;15976;47.938;7.758;2022-07-23T04:12:58;9.93;;;8.40;;
28844;SDS011;15976;47.938;7.758;2022-07-23T04:15:25;10.30;;;8.73;;
28844;SDS011;15976;47.938;7.758;2022-07-23T04:17:52;11.43;;;8.35;;
28844;SDS011;15976;47.938;7.758;2022-07-23T04:20:25;8.00;;;7.20;;
28844;SDS011;15976;47.938;7.758;2022-07-23T04:22:56;9.35;;;7.18;;
28844;SDS011;15976;47.938;7.758;2022-07-23T04:25:24;9.88;;;7.57;;
28844;SDS011;15976;47.938;7.758;2022-07-23T04:27:51;7.90;;;7.10;;
28844;SDS011;15976;47.938;7.758;2022-07-23T04:30:18;8.68;;;7.78;;
28844;SDS011;15976;47.938;7.758;2022-07-23T04:32:45;7.63;;;6.82;;
28844;SDS011;15976;47.938;7.758;2022-07-23T04:35:18;8.27;;;7.38;;
28844;SDS011;15976;47.938;7.758;2022-07-23T04:37:48;9.60;;;7.97;;
28844;SDS011;15976;47.938;7.758;2022-07-23T04:40:17;11.95;;;8.68;;
28844;SDS011;15976;47.938;7.758;2022-07-23T04:42:44;9.55;;;8.55;;
28844;SDS011;15976;47.938;7.758;2022-07-23T04:45:12;9.20;;;8.02;;
28844;SDS011;15976;47.938;7.758;2022-07-23T04:47:41;11.38;;;7.43;;
28844;SDS011;15976;47.938;7.758;2022-07-23T04:50:10;11.25;;;8.15;;
28844;SDS011;15976;47.938;7.758;2022-07-23T04:52:39;8.70;;;7.68;;
28844;SDS011;15976;47.938;7.758;2022-07-23T04:55:06;9.20;;;7.85;;
28844;SDS011;15976;47.938;7.758;2022-07-23T04:57:33;9.90;;;8.45;;
28844;SDS011;15976;47.938;7.758;2022-07-23T05:00:01;10.88;;;8.15;;
28844;SDS011;15976;47.938;7.758;2022-07-23T05:02:30;10.38;;;8.27;;
28844;SDS011;15976;47.938;7.758;2022-07-23T05:04:57;9.50;;;8.07;;
28844;SDS011;15976;47.938;7.758;2022-07-23T05:07:24;8.65;;;7.72;;
28844;SDS011;15976;47.938;7.758;2022-07-23T05:09:51;8.95;;;8.05;;
28844;SDS011;15976;47.938;7.758;2022-07-23T05:12:18;9.80;;;7.75;;
28844;SDS011;15976;47.938;7.758;2022-07-23T05:14:46;11.55;;;7.85;;
28844;SDS011;15976;47.938;7.758;2022-07-23T05:17:13;10.70;;;7.82;;
28844;SDS011;15976;47.938;7.758;2022-07-23T05:19:40;8.45;;;7.20;;
28844;SDS011;15976;47.938;7.758;2022-07-23T05:22:08;10.00;;;8.40;;
28844;SDS011;15976;47.938;7.758;2022-07-23T05:24:34;9.57;;;8.15;;
28844;SDS011;15976;47.938;7.758;2022-07-23T05:27:02;9.70;;;7.70;;
28844;SDS011;15976;47.938;7.758;2022-07-23T05:29:30;10.38;;;8.70;;
28844;SDS011;15976;47.938;7.758;2022-07-23T05:31:57;10.40;;;7.78;;
28844;SDS011;15976;47.938;7.758;2022-07-23T05:34:26;8.98;;;7.60;;
28844;SDS011;15976;47.938;7.758;2022-07-23T05:36:53;8.52;;;7.30;;
28844;SDS011;15976;47.938;7.758;2022-07-23T05:39:20;9.70;;;7.40;;
28844;SDS011;15976;47.938;7.758;2022-07-23T05:41:48;10.20;;;7.75;;
28844;SDS011;15976;47.938;7.758;2022-07-23T05:44:16;15.80;;;10.60;;
28844;SDS011;15976;47.938;7.758;2022-07-23T05:46:43;12.60;;;8.85;;
28844;SDS011;15976;47.938;7.758;2022-07-23T05:49:16;14.43;;;10.85;;
28844;SDS011;15976;47.938;7.758;2022-07-23T05:52:05;17.10;;;12.30;;
28844;SDS011;15976;47.938;7.758;2022-07-23T05:54:56;14.57;;;10.48;;
28844;SDS011;15976;47.938;7.758;2022-07-23T05:57:23;12.48;;;9.95;;
28844;SDS011;15976;47.938;7.758;2022-07-23T05:59:51;11.00;;;8.80;;
28844;SDS011;15976;47.938;7.758;2022-07-23T06:02:18;9.43;;;8.45;;
28844;SDS011;15976;47.938;7.758;2022-07-23T06:04:46;10.27;;;9.20;;
28844;SDS011;15976;47.938;7.758;2022-07-23T06:07:24;12.35;;;9.43;;
28844;SDS011;15976;47.938;7.758;2022-07-23T06:09:51;13.27;;;9.65;;
28844;SDS011;15976;47.938;7.758;2022-07-23T06:12:18;10.60;;;8.98;;
28844;SDS011;15976;47.938;7.758;2022-07-23T06:14:45;11.63;;;9.88;;
28844;SDS011;15976;47.938;7.758;2022-07-23T06:17:15;12.32;;;10.07;;
28844;SDS011;15976;47.938;7.758;2022-07-23T06:19:42;13.65;;;10.73;;
28844;SDS011;15976;47.938;7.758;2022-07-23T06:22:09;11.07;;;9.25;;
28844;SDS011;15976;47.938;7.758;2022-07-23T06:24:36;11.00;;;9.05;;
28844;SDS011;15976;47.938;7.758;2022-07-23T06:27:03;11.57;;;9.60;;
28844;SDS011;15976;47.938;7.758;2022-07-23T06:29:30;10.73;;;9.18;;
28844;SDS011;15976;47.938;7.758;2022-07-23T06:31:58;9.98;;;8.98;;
28844;SDS011;15976;47.938;7.758;2022-07-23T06:34:25;11.77;;;9.70;;
28844;SDS011;15976;47.938;7.758;2022-07-23T06:36:54;11.93;;;10.07;;
28844;SDS011;15976;47.938;7.758;2022-07-23T06:39:22;13.70;;;9.48;;
28844;SDS011;15976;47.938;7.758;2022-07-23T06:41:49;12.75;;;10.15;;
28844;SDS011;15976;47.938;7.758;2022-07-23T06:44:23;19.52;;;10.68;;
28844;SDS011;15976;47.938;7.758;2022-07-23T06:46:50;12.95;;;11.15;;
28844;SDS011;15976;47.938;7.758;2022-07-23T06:49:17;12.43;;;10.48;;
28844;SDS011;15976;47.938;7.758;2022-07-23T06:51:45;11.48;;;10.25;;
28844;SDS011;15976;47.938;7.758;2022-07-23T06:54:12;13.68;;;10.48;;
28844;SDS011;15976;47.938;7.758;2022-07-23T06:56:39;14.38;;;10.82;;
28844;SDS011;15976;47.938;7.758;2022-07-23T06:59:06;14.75;;;10.70;;
28844;SDS011;15976;47.938;7.758;2022-07-23T07:01:33;13.10;;;10.82;;
28844;SDS011;15976;47.938;7.758;2022-07-23T07:04:00;13.88;;;10.50;;
28844;SDS011;15976;47.938;7.758;2022-07-23T07:06:27;12.45;;;10.43;;
28844;SDS011;15976;47.938;7.758;2022-07-23T07:08:54;12.82;;;10.60;;
28844;SDS011;15976;47.938;7.758;2022-07-23T07:11:22;12.43;;;10.15;;
28844;SDS011;15976;47.938;7.758;2022-07-23T07:13:51;15.27;;;9.85;;
28844;SDS011;15976;47.938;7.758;2022-07-23T07:16:19;11.20;;;9.27;;
28844;SDS011;15976;47.938;7.758;2022-07-23T07:18:46;11.90;;;9.68;;
28844;SDS011;15976;47.938;7.758;2022-07-23T07:21:13;14.38;;;10.38;;
28844;SDS011;15976;47.938;7.758;2022-07-23T07:23:40;13.70;;;10.77;;
28844;SDS011;15976;47.938;7.758;2022-07-23T07:26:07;13.18;;;10.32;;
28844;SDS011;15976;47.938;7.758;2022-07-23T07:28:34;12.82;;;10.52;;
28844;SDS011;15976;47.938;7.758;2022-07-23T07:31:02;11.35;;;9.95;;
28844;SDS011;15976;47.938;7.758;2022-07-23T07:33:29;12.35;;;9.57;;
28844;SDS011;15976;47.938;7.758;2022-07-23T07:35:56;13.95;;;9.70;;
28844;SDS011;15976;47.938;7.758;2022-07-23T07:38:23;10.38;;;9.20;;
28844;SDS011;15976;47.938;7.758;2022-07-23T07:40:50;15.50;;;9.90;;
28844;SDS011;15976;47.938;7.758;2022-07-23T07:43:17;12.90;;;10.45;;
28844;SDS011;15976;47.938;7.758;2022-07-23T07:45:44;14.18;;;10.13;;
28844;SDS011;15976;47.938;7.758;2022-07-23T07:48:11;11.93;;;9.50;;
28844;SDS011;15976;47.938;7.758;2022-07-23T07:50:38;10.52;;;9.48;;
28844;SDS011;15976;47.938;7.758;2022-07-23T07:53:06;12.73;;;9.82;;
28844;SDS011;15976;47.938;7.758;2022-07-23T07:55:32;13.48;;;10.48;;
28844;SDS011;15976;47.938;7.758;2022-07-23T07:57:59;11.85;;;9.00;;
28844;SDS011;15976;47.938;7.758;2022-07-23T08:00:27;11.00;;;9.02;;
28844;SDS011;15976;47.938;7.758;2022-07-23T08:02:55;11.73;;;9.52;;
28844;SDS011;15976;47.938;7.758;2022-07-23T08:05:26;14.07;;;9.35;;
28844;SDS011;15976;47.938;7.758;2022-07-23T08:07:55;13.68;;;9.65;;
28844;SDS011;15976;47.938;7.758;2022-07-23T08:10:26;14.35;;;9.20;;
28844;SDS011;15976;47.938;7.758;2022-07-23T08:12:55;10.82;;;8.68;;
28844;SDS011;15976;47.938;7.758;2022-07-23T08:15:23;10.18;;;8.80;;
28844;SDS011;15976;47.938;7.758;2022-07-23T08:17:52;11.70;;;9.02;;
28844;SDS011;15976;47.938;7.758;2022-07-23T08:20:20;11.95;;;9.13;;
28844;SDS011;15976;47.938;7.758;2022-07-23T08:27:52;12.35;;;9.93;;
28844;SDS011;15976;47.938;7.758;2022-07-23T08:30:19;10.73;;;9.35;;
28844;SDS011;15976;47.938;7.758;2022-07-23T08:32:51;10.98;;;8.80;;
28844;SDS011;15976;47.938;7.758;2022-07-23T08:35:38;13.02;;;9.75;;
28844;SDS011;15976;47.938;7.758;2022-07-23T08:38:10;15.00;;;9.95;;
28844;SDS011;15976;47.938;7.758;2022-07-23T08:40:40;19.10;;;10.60;;
28844;SDS011;15976;47.938;7.758;2022-07-23T08:43:12;11.32;;;8.95;;
28844;SDS011;15976;47.938;7.758;2022-07-23T08:45:43;11.32;;;8.73;;
28844;SDS011;15976;47.938;7.758;2022-07-23T08:52:33;12.05;;;9.25;;
28844;SDS011;15976;47.938;7.758;2022-07-23T08:55:35;17.48;;;9.23;;
28844;SDS011;15976;47.938;7.758;2022-07-23T08:58:02;13.30;;;9.15;;
28844;SDS011;15976;47.938;7.758;2022-07-23T09:00:38;10.73;;;8.05;;
28844;SDS011;15976;47.938;7.758;2022-07-23T09:05:49;14.30;;;9.40;;
28844;SDS011;15976;47.938;7.758;2022-07-23T09:08:18;11.77;;;9.05;;
28844;SDS011;15976;47.938;7.758;2022-07-23T09:15:52;10.02;;;8.70;;
28844;SDS011;15976;47.938;7.758;2022-07-23T09:18:30;10.50;;;8.15;;
28844;SDS011;15976;47.938;7.758;2022-07-23T09:21:06;15.82;;;9.68;;
28844;SDS011;15976;47.938;7.758;2022-07-23T09:23:53;11.15;;;8.23;;
28844;SDS011;15976;47.938;7.758;2022-07-23T09:31:59;9.52;;;7.80;;
28844;SDS011;15976;47.938;7.758;2022-07-23T09:34:29;10.68;;;8.48;;
28844;SDS011;15976;47.938;7.758;2022-07-23T09:37:12;8.82;;;7.60;;
28844;SDS011;15976;47.938;7.758;2022-07-23T09:39:41;8.90;;;8.00;;
28844;SDS011;15976;47.938;7.758;2022-07-23T09:42:17;10.48;;;7.78;;
28844;SDS011;15976;47.938;7.758;2022-07-23T09:44:46;10.40;;;8.70;;
28844;SDS011;15976;47.938;7.758;2022-07-23T09:47:15;12.23;;;9.00;;
28844;SDS011;15976;47.938;7.758;2022-07-23T09:52:30;13.15;;;8.65;;
28844;SDS011;15976;47.938;7.758;2022-07-23T09:55:05;10.18;;;7.88;;
28844;SDS011;15976;47.938;7.758;2022-07-23T09:57:33;11.40;;;8.30;;
28844;SDS011;15976;47.938;7.758;2022-07-23T10:00:03;6.50;;;5.60;;
28844;SDS011;15976;47.938;7.758;2022-07-23T10:02:32;6.82;;;5.07;;
28844;SDS011;15976;47.938;7.758;2022-07-23T10:05:19;7.40;;;5.82;;
28844;SDS011;15976;47.938;7.758;2022-07-23T10:08:10;11.02;;;6.22;;
28844;SDS011;15976;47.938;7.758;2022-07-23T10:10:59;6.93;;;5.28;;
28844;SDS011;15976;47.938;7.758;2022-07-23T10:13:54;8.25;;;5.72;;
28844;SDS011;15976;47.938;7.758;2022-07-23T10:16:32;10.45;;;6.28;;
28844;SDS011;15976;47.938;7.758;2022-07-23T10:18:59;8.18;;;5.90;;
28844;SDS011;15976;47.938;7.758;2022-07-23T10:21:50;8.25;;;6.47;;
28844;SDS011;15976;47.938;7.758;2022-07-23T10:32:56;7.78;;;5.43;;
28844;SDS011;15976;47.938;7.758;2022-07-23T10:38:59;6.45;;;5.07;;
28844;SDS011;15976;47.938;7.758;2022-07-23T10:41:39;7.18;;;5.57;;
28844;SDS011;15976;47.938;7.758;2022-07-23T10:44:11;11.27;;;5.68;;
28844;SDS011;15976;47.938;7.758;2022-07-23T10:47:00;5.80;;;4.85;;
28844;SDS011;15976;47.938;7.758;2022-07-23T10:50:24;5.53;;;4.45;;
28844;SDS011;15976;47.938;7.758;2022-07-23T10:55:48;6.18;;;4.80;;
28844;SDS011;15976;47.938;7.758;2022-07-23T10:58:50;6.25;;;5.00;;
28844;SDS011;15976;47.938;7.758;2022-07-23T11:02:24;4.83;;;4.10;;
28844;SDS011;15976;47.938;7.758;2022-07-23T11:06:00;4.88;;;3.88;;
28844;SDS011;15976;47.938;7.758;2022-07-23T11:08:36;7.43;;;4.72;;
28844;SDS011;15976;47.938;7.758;2022-07-23T11:11:11;6.93;;;4.70;;
28844;SDS011;15976;47.938;7.758;2022-07-23T11:17:19;5.90;;;4.35;;
28844;SDS011;15976;47.938;7.758;2022-07-23T11:20:18;4.13;;;3.72;;
28844;SDS011;15976;47.938;7.758;2022-07-23T11:22:59;9.07;;;4.90;;
28844;SDS011;15976;47.938;7.758;2022-07-23T11:25:35;5.75;;;4.25;;
28844;SDS011;15976;47.938;7.758;2022-07-23T11:28:11;7.00;;;4.45;;
28844;SDS011;15976;47.938;7.758;2022-07-23T11:30:48;6.57;;;5.20;;
28844;SDS011;15976;47.938;7.758;2022-07-23T11:33:24;4.68;;;4.03;;
28844;SDS011;15976;47.938;7.758;2022-07-23T11:36:02;4.55;;;3.80;;
28844;SDS011;15976;47.938;7.758;2022-07-23T11:38:34;7.13;;;4.00;;
28844;SDS011;15976;47.938;7.758;2022-07-23T11:41:07;5.25;;;3.75;;
28844;SDS011;15976;47.938;7.758;2022-07-23T11:43:36;5.32;;;4.13;;
28844;SDS011;15976;47.938;7.758;2022-07-23T11:46:04;6.28;;;3.67;;
28844;SDS011;15976;47.938;7.758;2022-07-23T11:48:31;5.15;;;3.53;;
28844;SDS011;15976;47.938;7.758;2022-07-23T11:51:06;5.32;;;3.88;;
28844;SDS011;15976;47.938;7.758;2022-07-23T11:53:33;3.65;;;3.17;;
28844;SDS011;15976;47.938;7.758;2022-07-23T11:58:35;6.60;;;4.07;;
28844;SDS011;15976;47.938;7.758;2022-07-23T12:01:04;5.88;;;3.92;;
28844;SDS011;15976;47.938;7.758;2022-07-23T12:03:31;5.65;;;3.90;;
28844;SDS011;15976;47.938;7.758;2022-07-23T12:05:59;5.55;;;3.85;;
28844;SDS011;15976;47.938;7.758;2022-07-23T12:08:27;5.10;;;3.50;;
28844;SDS011;15976;47.938;7.758;2022-07-23T12:10:54;3.97;;;3.53;;
28844;SDS011;15976;47.938;7.758;2022-07-23T12:13:21;5.88;;;3.30;;
28844;SDS011;15976;47.938;7.758;2022-07-23T12:15:53;5.10;;;3.13;;
28844;SDS011;15976;47.938;7.758;2022-07-23T12:18:23;4.45;;;2.90;;
28844;SDS011;15976;47.938;7.758;2022-07-23T12:20:52;5.38;;;3.83;;
28844;SDS011;15976;47.938;7.758;2022-07-23T12:23:21;4.70;;;3.13;;
28844;SDS011;15976;47.938;7.758;2022-07-23T12:25:50;3.35;;;2.80;;
28844;SDS011;15976;47.938;7.758;2022-07-23T12:28:22;4.57;;;3.20;;
28844;SDS011;15976;47.938;7.758;2022-07-23T12:30:57;3.03;;;2.70;;
28844;SDS011;15976;47.938;7.758;2022-07-23T12:33:32;3.85;;;2.67;;
28844;SDS011;15976;47.938;7.758;2022-07-23T12:36:01;3.38;;;2.70;;
28844;SDS011;15976;47.938;7.758;2022-07-23T12:38:46;5.22;;;3.40;;
28844;SDS011;15976;47.938;7.758;2022-07-23T12:41:15;3.20;;;2.90;;
28844;SDS011;15976;47.938;7.758;2022-07-23T12:43:44;3.35;;;2.53;;
28844;SDS011;15976;47.938;7.758;2022-07-23T12:46:19;4.25;;;3.08;;
28844;SDS011;15976;47.938;7.758;2022-07-23T12:53:48;4.10;;;2.83;;
28844;SDS011;15976;47.938;7.758;2022-07-23T12:56:33;3.75;;;2.70;;
28844;SDS011;15976;47.938;7.758;2022-07-23T12:59:09;4.53;;;2.47;;
28844;SDS011;15976;47.938;7.758;2022-07-23T13:01:38;3.72;;;2.90;;
28844;SDS011;15976;47.938;7.758;2022-07-23T13:09:19;4.35;;;2.97;;
28844;SDS011;15976;47.938;7.758;2022-07-23T13:11:51;3.35;;;2.60;;
28844;SDS011;15976;47.938;7.758;2022-07-23T13:14:22;3.17;;;2.35;;
28844;SDS011;15976;47.938;7.758;2022-07-23T13:16:52;3.40;;;2.77;;
28844;SDS011;15976;47.938;7.758;2022-07-23T13:19:22;3.15;;;2.70;;
28844;SDS011;15976;47.938;7.758;2022-07-23T13:21:52;3.88;;;3.30;;
28844;SDS011;15976;47.938;7.758;2022-07-23T13:24:20;4.55;;;2.78;;
28844;SDS011;15976;47.938;7.758;2022-07-23T13:26:47;4.07;;;3.05;;
28844;SDS011;15976;47.938;7.758;2022-07-23T13:29:17;3.13;;;2.83;;
28844;SDS011;15976;47.938;7.758;2022-07-23T13:31:45;4.82;;;2.72;;
28844;SDS011;15976;47.938;7.758;2022-07-23T13:34:13;3.10;;;2.80;;
28844;SDS011;15976;47.938;7.758;2022-07-23T13:36:39;3.67;;;2.80;;
28844;SDS011;15976;47.938;7.758;2022-07-23T13:39:06;4.40;;;3.05;;
28844;SDS011;15976;47.938;7.758;2022-07-23T13:41:35;3.78;;;2.97;;
28844;SDS011;15976;47.938;7.758;2022-07-23T13:44:04;4.35;;;3.20;;
28844;SDS011;15976;47.938;7.758;2022-07-23T13:46:32;3.20;;;2.90;;
28844;SDS011;15976;47.938;7.758;2022-07-23T13:49:00;3.53;;;2.97;;
28844;SDS011;15976;47.938;7.758;2022-07-23T13:51:36;3.40;;;3.00;;
28844;SDS011;15976;47.938;7.758;2022-07-23T13:54:03;3.55;;;2.88;;
28844;SDS011;15976;47.938;7.758;2022-07-23T13:56:34;4.25;;;3.08;;
28844;SDS011;15976;47.938;7.758;2022-07-23T13:59:02;3.88;;;2.70;;
28844;SDS011;15976;47.938;7.758;2022-07-23T14:01:32;3.50;;;2.92;;
28844;SDS011;15976;47.938;7.758;2022-07-23T14:04:11;5.20;;;3.17;;
28844;SDS011;15976;47.938;7.758;2022-07-23T14:06:38;3.15;;;2.85;;
28844;SDS011;15976;47.938;7.758;2022-07-23T14:09:05;3.88;;;2.78;;
28844;SDS011;15976;47.938;7.758;2022-07-23T14:11:34;3.88;;;2.90;;
28844;SDS011;15976;47.938;7.758;2022-07-23T14:14:01;3.90;;;2.85;;
28844;SDS011;15976;47.938;7.758;2022-07-23T14:16:29;3.45;;;2.65;;
28844;SDS011;15976;47.938;7.758;2022-07-23T14:18:56;2.97;;;2.67;;
28844;SDS011;15976;47.938;7.758;2022-07-23T14:21:23;3.80;;;2.95;;
28844;SDS011;15976;47.938;7.758;2022-07-23T14:23:50;3.40;;;3.10;;
28844;SDS011;15976;47.938;7.758;2022-07-23T14:26:18;3.45;;;3.05;;
28844;SDS011;15976;47.938;7.758;2022-07-23T14:28:45;3.70;;;2.97;;
28844;SDS011;15976;47.938;7.758;2022-07-23T14:31:26;5.10;;;3.37;;
28844;SDS011;15976;47.938;7.758;2022-07-23T14:33:53;7.10;;;3.95;;
28844;SDS011;15976;47.938;7.758;2022-07-23T14:36:20;3.72;;;3.13;;
28844;SDS011;15976;47.938;7.758;2022-07-23T14:38:47;4.18;;;3.38;;
28844;SDS011;15976;47.938;7.758;2022-07-23T14:41:15;4.00;;;2.90;;
28844;SDS011;15976;47.938;7.758;2022-07-23T14:43:42;5.25;;;3.22;;
28844;SDS011;15976;47.938;7.758;2022-07-23T14:46:10;4.05;;;3.25;;
28844;SDS011;15976;47.938;7.758;2022-07-23T14:48:38;3.70;;;3.35;;
28844;SDS011;15976;47.938;7.758;2022-07-23T14:51:06;4.03;;;3.20;;
28844;SDS011;15976;47.938;7.758;2022-07-23T14:53:33;5.68;;;3.28;;
28844;SDS011;15976;47.938;7.758;2022-07-23T14:56:01;3.97;;;3.30;;
28844;SDS011;15976;47.938;7.758;2022-07-23T14:58:29;3.60;;;2.85;;
28844;SDS011;15976;47.938;7.758;2022-07-23T15:00:57;4.30;;;3.30;;
28844;SDS011;15976;47.938;7.758;2022-07-23T15:03:24;10.77;;;3.85;;
28844;SDS011;15976;47.938;7.758;2022-07-23T15:06:07;4.28;;;3.35;;
28844;SDS011;15976;47.938;7.758;2022-07-23T15:08:35;3.92;;;3.38;;
28844;SDS011;15976;47.938;7.758;2022-07-23T15:11:02;5.22;;;3.20;;
28844;SDS011;15976;47.938;7.758;2022-07-23T15:13:29;3.00;;;2.72;;
28844;SDS011;15976;47.938;7.758;2022-07-23T15:15:57;5.25;;;3.28;;
28844;SDS011;15976;47.938;7.758;2022-07-23T15:18:24;4.50;;;3.08;;
28844;SDS011;15976;47.938;7.758;2022-07-23T15:20:51;6.18;;;3.58;;
28844;SDS011;15976;47.938;7.758;2022-07-23T15:23:18;3.65;;;3.00;;
28844;SDS011;15976;47.938;7.758;2022-07-23T15:25:45;4.30;;;3.17;;
28844;SDS011;15976;47.938;7.758;2022-07-23T15:28:16;3.78;;;3.05;;
28844;SDS011;15976;47.938;7.758;2022-07-23T15:30:47;4.03;;;3.30;;
28844;SDS011;15976;47.938;7.758;2022-07-23T15:33:16;3.75;;;3.38;;
28844;SDS011;15976;47.938;7.758;2022-07-23T15:35:48;5.75;;;3.38;;
28844;SDS011;15976;47.938;7.758;2022-07-23T15:38:15;3.80;;;3.20;;
28844;SDS011;15976;47.938;7.758;2022-07-23T15:40:54;4.85;;;2.90;;
28844;SDS011;15976;47.938;7.758;2022-07-23T15:43:25;4.18;;;3.05;;
28844;SDS011;15976;47.938;7.758;2022-07-23T15:45:52;3.25;;;2.88;;
28844;SDS011;15976;47.938;7.758;2022-07-23T15:48:20;5.68;;;3.33;;
28844;SDS011;15976;47.938;7.758;2022-07-23T15:50:48;7.85;;;3.42;;
28844;SDS011;15976;47.938;7.758;2022-07-23T15:53:15;3.28;;;2.90;;
28844;SDS011;15976;47.938;7.758;2022-07-23T15:56:03;4.82;;;3.13;;
28844;SDS011;15976;47.938;7.758;2022-07-23T15:58:35;3.45;;;2.97;;